Nyk Deneb — 3EOF8 — position and weather

sailwx.info

Track history (hours):
 
Tides and Currents Weather Stations Pressure Air Temp Water Temp Dewpoint Dewpoint Depression Visibility Wind Speed Wind Dir Waves Ship Positions

Nyk Deneb

Last reported at 2014-Sep-01 06:14 UTC. Time now 2014-Sep-03 05:07 UTC.
Position N 25°46' W 115°22'.

Length 294 m; draft 11.1 m.

Type: Ship (hazmat cat A). MMSI: 355717000.

Date/timePositionNaut miles runAvg speedWind from/ knotsBaromVisibWave heightAir tempDewpointWater temp
2014-Sep-01 06:14N 25°46' W 115°22'4219.0
2014-Sep-01 04:03N 26°11' W 115°60'1319.0
2014-Sep-01 03:21N 26°18' W 116°12'1518.9
2014-Sep-01 02:33N 26°27' W 116°25'1918.8
2014-Sep-01 01:33N 26°39' W 116°42'1919.0
2014-Sep-01 00:33N 26°50' W 116°59'1919.2
2014-Aug-31 23:33N 27°01' W 117°16'1919.5
2014-Aug-31 22:33N 27°13' W 117°34'2019.6
2014-Aug-31 21:33N 27°24' W 117°52'2019.9
2014-Aug-31 20:33N 27°36' W 118°10'4019.9
2014-Aug-31 18:33N 28°00' W 118°46'2019.4
2014-Aug-31 17:33N 28°12' W 119°04'1919.4
2014-Aug-31 16:33N 28°23' W 119°21'1919.2
2014-Aug-31 15:33N 28°34' W 119°39'1919.3
2014-Aug-31 14:33N 28°46' W 119°56'1919.5
2014-Aug-31 13:33N 28°58' W 120°14'1919.3
2014-Aug-31 12:33N 29°09' W 120°32'2019.5
2014-Aug-31 11:33N 29°21' W 120°50'1919.5
2014-Aug-31 10:33N 29°33' W 121°07'2019.6
2014-Aug-31 09:33N 29°44' W 121°26'2019.6
2014-Aug-31 08:33N 29°56' W 121°44'2019.8
2014-Aug-31 07:33N 30°09' W 122°01'2019.9
2014-Aug-31 06:33N 30°21' W 122°19'2019.8
2014-Aug-31 05:33N 30°34' W 122°37'2019.7
2014-Aug-31 04:33N 30°46' W 122°55'1918.5
2014-Aug-31 03:33N 30°58' W 123°12'1414.2
2014-Aug-31 02:33N 31°06' W 123°26'1919.6
2014-Aug-31 01:34N 31°17' W 123°44'1919.3
2014-Aug-31 00:34N 31°29' W 124°02'1919.3
2014-Aug-30 23:34N 31°41' W 124°20'1919.1
2014-Aug-30 22:33N 31°52' W 124°38'1919.2
2014-Aug-30 21:33N 32°04' W 124°56'1919.0
2014-Aug-30 20:33N 32°15' W 125°14'1918.9
2014-Aug-30 19:34N 32°27' W 125°31'1918.8
2014-Aug-30 18:34N 32°39' W 125°48'1918.7
2014-Aug-30 17:34N 32°51' W 126°06'1918.8
2014-Aug-30 16:34N 33°02' W 126°23'1918.7
2014-Aug-30 15:34N 33°13' W 126°41'1918.7
2014-Aug-30 14:34N 33°24' W 126°60'1919.0
2014-Aug-30 13:34N 33°35' W 127°18'1918.9
2014-Aug-30 12:33N 33°47' W 127°36'1919.0
2014-Aug-30 11:34N 33°58' W 127°54'1919.0
2014-Aug-30 10:33N 34°09' W 128°13'1918.6
2014-Aug-30 09:33N 34°20' W 128°31'1918.6
2014-Aug-30 08:33N 34°31' W 128°49'1918.7
2014-Aug-30 07:33N 34°43' W 129°07'1818.3
2014-Aug-30 06:34N 34°54' W 129°25'1818.3
2014-Aug-30 05:34N 35°04' W 129°43'1818.2
2014-Aug-30 04:33N 35°15' W 130°02'1918.4
2014-Aug-30 03:33N 35°26' W 130°20'1818.7
2014-Aug-30 02:33N 35°37' W 130°38'  
Track history (hours):
 
Tides and Currents Weather Stations Pressure Air Temp Water Temp Dewpoint Dewpoint Depression Visibility Wind Speed Wind Dir Waves Ship Positions

Nyk Deneb

Last reported at 2014-Sep-01 06:14 UTC. Time now 2014-Sep-03 05:07 UTC.
Position N 25°46' W 115°22'.

Length 294 m; draft 11.1 m.

Type: Ship (hazmat cat A). MMSI: 355717000.

Date/timePositionNaut miles runAvg speedWind from/ knotsBaromVisibWave heightAir tempDewpointWater temp
2014-Sep-01 06:14N 25°46' W 115°22'4219.0
2014-Sep-01 04:03N 26°11' W 115°60'1319.0
2014-Sep-01 03:21N 26°18' W 116°12'1518.9
2014-Sep-01 02:33N 26°27' W 116°25'1918.8
2014-Sep-01 01:33N 26°39' W 116°42'1919.0
2014-Sep-01 00:33N 26°50' W 116°59'1919.2
2014-Aug-31 23:33N 27°01' W 117°16'1919.5
2014-Aug-31 22:33N 27°13' W 117°34'2019.6
2014-Aug-31 21:33N 27°24' W 117°52'2019.9
2014-Aug-31 20:33N 27°36' W 118°10'4019.9
2014-Aug-31 18:33N 28°00' W 118°46'2019.4
2014-Aug-31 17:33N 28°12' W 119°04'1919.4
2014-Aug-31 16:33N 28°23' W 119°21'1919.2
2014-Aug-31 15:33N 28°34' W 119°39'1919.3
2014-Aug-31 14:33N 28°46' W 119°56'1919.5
2014-Aug-31 13:33N 28°58' W 120°14'1919.3
2014-Aug-31 12:33N 29°09' W 120°32'2019.5
2014-Aug-31 11:33N 29°21' W 120°50'1919.5
2014-Aug-31 10:33N 29°33' W 121°07'2019.6
2014-Aug-31 09:33N 29°44' W 121°26'2019.6
2014-Aug-31 08:33N 29°56' W 121°44'2019.8
2014-Aug-31 07:33N 30°09' W 122°01'2019.9
2014-Aug-31 06:33N 30°21' W 122°19'2019.8
2014-Aug-31 05:33N 30°34' W 122°37'2019.7
2014-Aug-31 04:33N 30°46' W 122°55'1918.5
2014-Aug-31 03:33N 30°58' W 123°12'1414.2
2014-Aug-31 02:33N 31°06' W 123°26'1919.6
2014-Aug-31 01:34N 31°17' W 123°44'1919.3
2014-Aug-31 00:34N 31°29' W 124°02'1919.3
2014-Aug-30 23:34N 31°41' W 124°20'1919.1
2014-Aug-30 22:33N 31°52' W 124°38'1919.2
2014-Aug-30 21:33N 32°04' W 124°56'1919.0
2014-Aug-30 20:33N 32°15' W 125°14'1918.9
2014-Aug-30 19:34N 32°27' W 125°31'1918.8
2014-Aug-30 18:34N 32°39' W 125°48'1918.7
2014-Aug-30 17:34N 32°51' W 126°06'1918.8
2014-Aug-30 16:34N 33°02' W 126°23'1918.7
2014-Aug-30 15:34N 33°13' W 126°41'1918.7
2014-Aug-30 14:34N 33°24' W 126°60'1919.0
2014-Aug-30 13:34N 33°35' W 127°18'1918.9
2014-Aug-30 12:33N 33°47' W 127°36'1919.0
2014-Aug-30 11:34N 33°58' W 127°54'1919.0
2014-Aug-30 10:33N 34°09' W 128°13'1918.6
2014-Aug-30 09:33N 34°20' W 128°31'1918.6
2014-Aug-30 08:33N 34°31' W 128°49'1918.7
2014-Aug-30 07:33N 34°43' W 129°07'1818.3
2014-Aug-30 06:34N 34°54' W 129°25'1818.3
2014-Aug-30 05:34N 35°04' W 129°43'1818.2
2014-Aug-30 04:33N 35°15' W 130°02'1918.4
2014-Aug-30 03:33N 35°26' W 130°20'1818.7
2014-Aug-30 02:33N 35°37' W 130°38'  

Dump ship's entire track history